sensor_id;sensor_type;location;lat;lon;timestamp;pressure;altitude;pressure_sealevel;temperature;humidity
13080;BME280;6606;49.154;9.280;2022-11-06T00:00:35;100109.13;;;4.60;100.00
13080;BME280;6606;49.154;9.280;2022-11-06T00:03:03;100114.38;;;4.60;100.00
13080;BME280;6606;49.154;9.280;2022-11-06T00:05:29;100108.34;;;4.55;100.00
13080;BME280;6606;49.154;9.280;2022-11-06T00:08:14;100114.56;;;4.51;100.00
13080;BME280;6606;49.154;9.280;2022-11-06T00:10:42;100105.84;;;4.49;100.00
13080;BME280;6606;49.154;9.280;2022-11-06T00:13:09;100103.28;;;4.46;100.00
13080;BME280;6606;49.154;9.280;2022-11-06T00:15:36;100108.50;;;4.47;100.00
13080;BME280;6606;49.154;9.280;2022-11-06T00:18:02;100111.97;;;4.49;100.00
13080;BME280;6606;49.154;9.280;2022-11-06T00:20:29;100112.78;;;4.53;100.00
13080;BME280;6606;49.154;9.280;2022-11-06T00:22:56;100118.97;;;4.50;100.00
13080;BME280;6606;49.154;9.280;2022-11-06T00:25:22;100110.19;;;4.51;100.00
13080;BME280;6606;49.154;9.280;2022-11-06T00:27:50;100110.25;;;4.48;100.00
13080;BME280;6606;49.154;9.280;2022-11-06T00:30:17;100104.13;;;4.48;100.00
13080;BME280;6606;49.154;9.280;2022-11-06T00:32:45;100111.97;;;4.49;100.00
13080;BME280;6606;49.154;9.280;2022-11-06T00:35:12;100112.88;;;4.47;100.00
13080;BME280;6606;49.154;9.280;2022-11-06T00:37:39;100112.88;;;4.47;100.00
13080;BME280;6606;49.154;9.280;2022-11-06T00:40:06;100116.41;;;4.46;100.00
13080;BME280;6606;49.154;9.280;2022-11-06T00:42:33;100113.75;;;4.47;100.00
13080;BME280;6606;49.154;9.280;2022-11-06T00:45:01;100103.31;;;4.44;100.00
13080;BME280;6606;49.154;9.280;2022-11-06T00:47:28;100109.41;;;4.46;100.00
13080;BME280;6606;49.154;9.280;2022-11-06T00:49:54;100115.63;;;4.40;100.00
13080;BME280;6606;49.154;9.280;2022-11-06T00:52:21;100118.25;;;4.40;100.00
13080;BME280;6606;49.154;9.280;2022-11-06T00:54:48;100122.59;;;4.41;100.00
13080;BME280;6606;49.154;9.280;2022-11-06T00:57:14;100113.06;;;4.37;100.00
13080;BME280;6606;49.154;9.280;2022-11-06T00:59:41;100115.69;;;4.37;100.00
13080;BME280;6606;49.154;9.280;2022-11-06T01:02:09;100120.03;;;4.38;100.00
13080;BME280;6606;49.154;9.280;2022-11-06T01:04:36;100113.91;;;4.39;100.00
13080;BME280;6606;49.154;9.280;2022-11-06T01:07:02;100118.38;;;4.34;100.00
13080;BME280;6606;49.154;9.280;2022-11-06T01:09:29;100113.19;;;4.31;100.00
13080;BME280;6606;49.154;9.280;2022-11-06T01:11:57;100111.44;;;4.30;100.00
13080;BME280;6606;49.154;9.280;2022-11-06T01:14:24;100109.72;;;4.28;100.00
13080;BME280;6606;49.154;9.280;2022-11-06T01:16:51;100104.56;;;4.23;100.00
13080;BME280;6606;49.154;9.280;2022-11-06T01:19:21;100101.13;;;4.21;100.00
13080;BME280;6606;49.154;9.280;2022-11-06T01:21:50;100101.13;;;4.21;100.00
13080;BME280;6606;49.154;9.280;2022-11-06T01:24:20;100094.19;;;4.17;100.00
13080;BME280;6606;49.154;9.280;2022-11-06T01:26:47;100096.88;;;4.12;100.00
13080;BME280;6606;49.154;9.280;2022-11-06T01:29:16;100096.06;;;4.10;100.00
13080;BME280;6606;49.154;9.280;2022-11-06T01:31:43;100092.66;;;4.04;100.00
13080;BME280;6606;49.154;9.280;2022-11-06T01:34:10;100090.16;;;3.96;100.00
13080;BME280;6606;49.154;9.280;2022-11-06T01:36:39;100095.41;;;3.96;100.00
13080;BME280;6606;49.154;9.280;2022-11-06T01:39:08;100098.06;;;3.94;100.00
13080;BME280;6606;49.154;9.280;2022-11-06T01:41:39;100092.84;;;3.91;100.00
13080;BME280;6606;49.154;9.280;2022-11-06T01:47:21;100092.22;;;3.79;100.00
13080;BME280;6606;49.154;9.280;2022-11-06T01:49:50;100104.47;;;3.75;100.00
13080;BME280;6606;49.154;9.280;2022-11-06T01:52:18;100096.78;;;3.66;100.00
13080;BME280;6606;49.154;9.280;2022-11-06T01:54:49;100100.31;;;3.62;100.00
13080;BME280;6606;49.154;9.280;2022-11-06T01:57:17;100093.34;;;3.61;100.00
13080;BME280;6606;49.154;9.280;2022-11-06T01:59:44;100093.41;;;3.55;100.00
13080;BME280;6606;49.154;9.280;2022-11-06T02:02:13;100094.38;;;3.50;100.00
13080;BME280;6606;49.154;9.280;2022-11-06T02:04:45;100087.41;;;3.48;100.00
13080;BME280;6606;49.154;9.280;2022-11-06T02:07:13;100085.72;;;3.45;100.00
13080;BME280;6606;49.154;9.280;2022-11-06T02:09:40;100083.09;;;3.44;100.00
13080;BME280;6606;49.154;9.280;2022-11-06T02:12:13;100073.53;;;3.41;100.00
13080;BME280;6606;49.154;9.280;2022-11-06T02:14:53;100076.16;;;3.41;100.00
13080;BME280;6606;49.154;9.280;2022-11-06T02:17:31;100077.94;;;3.39;100.00
13080;BME280;6606;49.154;9.280;2022-11-06T02:20:05;100070.13;;;3.36;100.00
13080;BME280;6606;49.154;9.280;2022-11-06T02:22:46;100064.09;;;3.31;100.00
13080;BME280;6606;49.154;9.280;2022-11-06T02:25:21;100061.50;;;3.28;100.00
13080;BME280;6606;49.154;9.280;2022-11-06T02:27:59;100048.44;;;3.25;100.00
13080;BME280;6606;49.154;9.280;2022-11-06T02:30:29;100046.78;;;3.21;100.00
13080;BME280;6606;49.154;9.280;2022-11-06T02:33:01;100030.25;;;3.16;100.00
13080;BME280;6606;49.154;9.280;2022-11-06T02:35:34;100021.44;;;3.20;100.00
13080;BME280;6606;49.154;9.280;2022-11-06T02:38:06;100015.41;;;3.18;100.00
13080;BME280;6606;49.154;9.280;2022-11-06T02:40:37;100024.16;;;3.15;100.00
13080;BME280;6606;49.154;9.280;2022-11-06T02:43:07;100018.94;;;3.14;100.00
13080;BME280;6606;49.154;9.280;2022-11-06T02:45:39;100018.06;;;3.13;100.00
13080;BME280;6606;49.154;9.280;2022-11-06T02:48:08;100021.53;;;3.15;100.00
13080;BME280;6606;49.154;9.280;2022-11-06T02:50:39;100022.44;;;3.13;100.00
13080;BME280;6606;49.154;9.280;2022-11-06T02:53:10;100029.34;;;3.17;100.00
13080;BME280;6606;49.154;9.280;2022-11-06T02:55:42;100017.19;;;3.14;100.00
13080;BME280;6606;49.154;9.280;2022-11-06T02:58:13;100009.31;;;3.16;100.00
13080;BME280;6606;49.154;9.280;2022-11-06T03:00:46;100016.25;;;3.18;100.00
13080;BME280;6606;49.154;9.280;2022-11-06T03:03:18;100020.63;;;3.18;100.00
13080;BME280;6606;49.154;9.280;2022-11-06T03:05:52;100013.69;;;3.14;100.00
13080;BME280;6606;49.154;9.280;2022-11-06T03:08:24;100010.19;;;3.15;100.00
13080;BME280;6606;49.154;9.280;2022-11-06T03:10:58;100008.50;;;3.11;100.00
13080;BME280;6606;49.154;9.280;2022-11-06T03:13:36;99999.69;;;3.15;100.00
13080;BME280;6606;49.154;9.280;2022-11-06T03:16:13;99991.94;;;3.10;100.00
13080;BME280;6606;49.154;9.280;2022-11-06T03:18:49;99983.19;;;3.09;100.00
13080;BME280;6606;49.154;9.280;2022-11-06T03:21:23;99980.63;;;3.08;100.00
13080;BME280;6606;49.154;9.280;2022-11-06T03:23:54;99989.38;;;3.05;100.00
13080;BME280;6606;49.154;9.280;2022-11-06T03:26:26;99997.34;;;2.96;100.00
13080;BME280;6606;49.154;9.280;2022-11-06T03:29:00;99994.72;;;2.96;100.00
13080;BME280;6606;49.154;9.280;2022-11-06T03:31:33;99997.38;;;2.95;100.00
13080;BME280;6606;49.154;9.280;2022-11-06T03:34:05;99998.25;;;2.95;100.00
13080;BME280;6606;49.154;9.280;2022-11-06T03:36:35;100006.09;;;2.95;100.00
13080;BME280;6606;49.154;9.280;2022-11-06T03:39:04;100007.91;;;2.92;100.00
13080;BME280;6606;49.154;9.280;2022-11-06T03:41:35;100006.16;;;2.92;100.00
13080;BME280;6606;49.154;9.280;2022-11-06T03:44:07;99999.09;;;2.96;100.00
13080;BME280;6606;49.154;9.280;2022-11-06T03:46:37;99996.47;;;2.97;100.00
13080;BME280;6606;49.154;9.280;2022-11-06T03:49:10;100000.88;;;2.95;100.00
13080;BME280;6606;49.154;9.280;2022-11-06T03:51:42;99992.31;;;2.84;100.00
13080;BME280;6606;49.154;9.280;2022-11-06T03:54:14;99986.16;;;2.85;100.00
13080;BME280;6606;49.154;9.280;2022-11-06T03:56:47;99975.78;;;2.79;100.00
13080;BME280;6606;49.154;9.280;2022-11-06T03:59:17;99979.34;;;2.73;100.00
13080;BME280;6606;49.154;9.280;2022-11-06T04:01:49;99978.56;;;2.68;100.00
13080;BME280;6606;49.154;9.280;2022-11-06T04:04:22;99984.66;;;2.69;100.00
13080;BME280;6606;49.154;9.280;2022-11-06T04:06:52;99984.69;;;2.66;100.00
13080;BME280;6606;49.154;9.280;2022-11-06T04:09:24;99982.13;;;2.61;100.00
13080;BME280;6606;49.154;9.280;2022-11-06T04:12:12;99986.53;;;2.57;100.00
13080;BME280;6606;49.154;9.280;2022-11-06T04:15:00;99983.06;;;2.55;100.00
13080;BME280;6606;49.154;9.280;2022-11-06T04:17:28;99981.38;;;2.51;100.00
13080;BME280;6606;49.154;9.280;2022-11-06T04:19:58;99971.81;;;2.50;100.00
13080;BME280;6606;49.154;9.280;2022-11-06T04:22:36;99975.41;;;2.41;100.00
13080;BME280;6606;49.154;9.280;2022-11-06T04:25:17;99970.22;;;2.38;100.00
13080;BME280;6606;49.154;9.280;2022-11-06T04:28:14;99955.38;;;2.37;100.00
13080;BME280;6606;49.154;9.280;2022-11-06T04:30:54;99962.44;;;2.32;100.00
13080;BME280;6606;49.154;9.280;2022-11-06T04:33:26;99965.00;;;2.35;100.00
13080;BME280;6606;49.154;9.280;2022-11-06T04:36:01;99969.38;;;2.35;100.00
13080;BME280;6606;49.154;9.280;2022-11-06T04:38:37;99965.94;;;2.31;100.00
13080;BME280;6606;49.154;9.280;2022-11-06T04:41:11;99959.00;;;2.29;100.00
13080;BME280;6606;49.154;9.280;2022-11-06T04:43:43;99954.66;;;2.28;100.00
13080;BME280;6606;49.154;9.280;2022-11-06T04:46:18;99952.06;;;2.25;100.00
13080;BME280;6606;49.154;9.280;2022-11-06T04:48:47;99938.16;;;2.19;100.00
13080;BME280;6606;49.154;9.280;2022-11-06T04:51:18;99938.16;;;2.19;100.00
13080;BME280;6606;49.154;9.280;2022-11-06T04:53:47;99941.69;;;2.18;100.00
13080;BME280;6606;49.154;9.280;2022-11-06T04:56:20;99931.31;;;2.11;100.00
13080;BME280;6606;49.154;9.280;2022-11-06T04:58:48;99922.56;;;2.13;100.00
13080;BME280;6606;49.154;9.280;2022-11-06T05:01:16;99922.56;;;2.13;100.00
13080;BME280;6606;49.154;9.280;2022-11-06T05:03:42;99910.44;;;2.09;100.00
13080;BME280;6606;49.154;9.280;2022-11-06T05:06:09;99914.88;;;2.00;100.00
13080;BME280;6606;49.154;9.280;2022-11-06T05:08:36;99919.19;;;2.05;100.00
13080;BME280;6606;49.154;9.280;2022-11-06T05:11:03;99927.88;;;2.07;100.00
13080;BME280;6606;49.154;9.280;2022-11-06T05:13:30;99931.34;;;2.09;100.00
13080;BME280;6606;49.154;9.280;2022-11-06T05:15:58;99945.22;;;2.14;100.00
13080;BME280;6606;49.154;9.280;2022-11-06T05:18:27;99957.50;;;2.06;100.00
13080;BME280;6606;49.154;9.280;2022-11-06T05:20:53;99962.72;;;2.06;100.00
13080;BME280;6606;49.154;9.280;2022-11-06T05:23:34;99954.78;;;2.14;100.00
13080;BME280;6606;49.154;9.280;2022-11-06T05:26:02;99959.06;;;2.23;100.00
13080;BME280;6606;49.154;9.280;2022-11-06T05:28:29;99962.56;;;2.22;100.00
13080;BME280;6606;49.154;9.280;2022-11-06T05:30:56;99954.75;;;2.18;100.00
13080;BME280;6606;49.154;9.280;2022-11-06T05:33:23;99959.09;;;2.19;100.00
13080;BME280;6606;49.154;9.280;2022-11-06T05:35:51;99956.47;;;2.19;100.00
13080;BME280;6606;49.154;9.280;2022-11-06T05:38:18;99955.69;;;2.14;100.00
13080;BME280;6606;49.154;9.280;2022-11-06T05:40:44;99950.47;;;2.13;100.00
13080;BME280;6606;49.154;9.280;2022-11-06T05:43:11;99961.78;;;2.15;100.00
13080;BME280;6606;49.154;9.280;2022-11-06T05:45:38;99980.16;;;2.07;100.00
13080;BME280;6606;49.154;9.280;2022-11-06T05:48:05;99982.72;;;2.10;100.00
13080;BME280;6606;49.154;9.280;2022-11-06T05:50:32;99968.81;;;2.10;100.00
13080;BME280;6606;49.154;9.280;2022-11-06T05:53:03;99967.09;;;2.07;100.00
13080;BME280;6606;49.154;9.280;2022-11-06T05:55:30;99967.94;;;2.06;100.00
13080;BME280;6606;49.154;9.280;2022-11-06T05:57:57;99957.47;;;2.09;100.00
13080;BME280;6606;49.154;9.280;2022-11-06T06:00:23;99964.38;;;2.13;100.00
13080;BME280;6606;49.154;9.280;2022-11-06T06:02:50;99946.94;;;2.15;100.00
13080;BME280;6606;49.154;9.280;2022-11-06T06:05:17;99934.78;;;2.14;100.00
13080;BME280;6606;49.154;9.280;2022-11-06T06:07:43;99946.22;;;2.04;100.00
13080;BME280;6606;49.154;9.280;2022-11-06T06:10:11;99947.03;;;2.06;100.00
13080;BME280;6606;49.154;9.280;2022-11-06T06:12:38;99947.03;;;2.09;100.00
13080;BME280;6606;49.154;9.280;2022-11-06T06:15:05;99959.19;;;2.12;100.00
13080;BME280;6606;49.154;9.280;2022-11-06T06:17:32;99959.09;;;2.19;100.00
13080;BME280;6606;49.154;9.280;2022-11-06T06:19:59;99952.09;;;2.23;100.00
13080;BME280;6606;49.154;9.280;2022-11-06T06:22:26;99945.28;;;2.08;100.00
13080;BME280;6606;49.154;9.280;2022-11-06T06:24:52;99949.63;;;2.09;100.00
13080;BME280;6606;49.154;9.280;2022-11-06T06:27:20;99947.00;;;2.12;100.00
13080;BME280;6606;49.154;9.280;2022-11-06T06:29:47;99938.16;;;2.19;100.00
13080;BME280;6606;49.154;9.280;2022-11-06T06:32:13;99934.66;;;2.22;100.00
13080;BME280;6606;49.154;9.280;2022-11-06T06:34:40;99953.06;;;2.14;100.00
13080;BME280;6606;49.154;9.280;2022-11-06T06:37:07;99960.91;;;2.11;100.00
13080;BME280;6606;49.154;9.280;2022-11-06T06:39:34;99949.59;;;2.11;100.00
13080;BME280;6606;49.154;9.280;2022-11-06T06:42:01;99937.38;;;2.13;100.00
13080;BME280;6606;49.154;9.280;2022-11-06T06:44:29;99946.09;;;2.13;100.00
13080;BME280;6606;49.154;9.280;2022-11-06T06:46:56;99945.22;;;2.11;100.00
13080;BME280;6606;49.154;9.280;2022-11-06T06:49:22;99952.25;;;2.06;100.00
13080;BME280;6606;49.154;9.280;2022-11-06T06:51:49;99947.94;;;2.04;100.00
13080;BME280;6606;49.154;9.280;2022-11-06T06:54:16;99935.75;;;2.01;100.00
13080;BME280;6606;49.154;9.280;2022-11-06T06:56:42;99933.06;;;2.10;100.00
13080;BME280;6606;49.154;9.280;2022-11-06T06:59:09;99923.38;;;2.20;100.00
13080;BME280;6606;49.154;9.280;2022-11-06T07:01:37;99931.91;;;2.34;100.00
13080;BME280;6606;49.154;9.280;2022-11-06T07:04:04;99923.84;;;2.48;100.00
13080;BME280;6606;49.154;9.280;2022-11-06T07:06:31;99915.19;;;2.46;100.00
13080;BME280;6606;49.154;9.280;2022-11-06T07:08:57;99898.53;;;2.52;100.00
13080;BME280;6606;49.154;9.280;2022-11-06T07:11:24;99886.84;;;2.76;100.00
13080;BME280;6606;49.154;9.280;2022-11-06T07:13:51;99883.22;;;2.83;100.00
13080;BME280;6606;49.154;9.280;2022-11-06T07:16:17;99881.34;;;2.94;100.00
13080;BME280;6606;49.154;9.280;2022-11-06T07:18:47;99880.59;;;2.84;100.00
13080;BME280;6606;49.154;9.280;2022-11-06T07:21:14;99873.56;;;2.88;100.00
13080;BME280;6606;49.154;9.280;2022-11-06T07:23:40;99877.81;;;2.95;100.00
13080;BME280;6606;49.154;9.280;2022-11-06T07:26:07;99871.31;;;3.21;100.00
13080;BME280;6606;49.154;9.280;2022-11-06T07:28:34;99865.00;;;3.31;100.00
13080;BME280;6606;49.154;9.280;2022-11-06T07:31:02;99863.31;;;3.27;100.00
13080;BME280;6606;49.154;9.280;2022-11-06T07:33:29;99851.91;;;3.31;100.00
13080;BME280;6606;49.154;9.280;2022-11-06T07:36:04;99851.66;;;3.45;100.00
13080;BME280;6606;49.154;9.280;2022-11-06T07:38:32;99854.25;;;3.46;100.00
13080;BME280;6606;49.154;9.280;2022-11-06T07:41:00;99844.53;;;3.53;100.00
13080;BME280;6606;49.154;9.280;2022-11-06T07:43:51;99841.75;;;3.61;100.00
13080;BME280;6606;49.154;9.280;2022-11-06T07:46:17;99835.41;;;3.72;100.00
13080;BME280;6606;49.154;9.280;2022-11-06T07:48:46;99825.84;;;3.70;100.00
13080;BME280;6606;49.154;9.280;2022-11-06T07:51:20;99827.53;;;3.74;100.00
13080;BME280;6606;49.154;9.280;2022-11-06T07:53:46;99808.25;;;3.75;100.00
13080;BME280;6606;49.154;9.280;2022-11-06T07:56:13;99795.94;;;3.80;100.00
13080;BME280;6606;49.154;9.280;2022-11-06T07:58:40;99785.13;;;3.95;100.00
13080;BME280;6606;49.154;9.280;2022-11-06T08:01:13;99787.31;;;4.15;100.00
13080;BME280;6606;49.154;9.280;2022-11-06T08:03:40;99794.13;;;4.23;100.00
13080;BME280;6606;49.154;9.280;2022-11-06T08:06:06;99799.88;;;4.40;100.00
13080;BME280;6606;49.154;9.280;2022-11-06T08:08:35;99794.47;;;4.48;100.00
13080;BME280;6606;49.154;9.280;2022-11-06T08:11:02;99778.41;;;4.60;100.00
13080;BME280;6606;49.154;9.280;2022-11-06T08:13:29;99785.03;;;4.76;100.00
13080;BME280;6606;49.154;9.280;2022-11-06T08:15:58;99781.03;;;4.94;100.00
13080;BME280;6606;49.154;9.280;2022-11-06T08:18:25;99783.16;;;5.14;100.00
13080;BME280;6606;49.154;9.280;2022-11-06T08:20:51;99777.34;;;5.36;100.00
13080;BME280;6606;49.154;9.280;2022-11-06T08:23:18;99785.84;;;5.45;100.00
13080;BME280;6606;49.154;9.280;2022-11-06T08:25:46;99778.53;;;5.55;100.00
13080;BME280;6606;49.154;9.280;2022-11-06T08:28:13;99771.50;;;5.56;100.00
13080;BME280;6606;49.154;9.280;2022-11-06T08:30:39;99772.91;;;5.69;100.00
13080;BME280;6606;49.154;9.280;2022-11-06T08:33:07;99780.56;;;5.77;100.00
13080;BME280;6606;49.154;9.280;2022-11-06T08:35:34;99767.88;;;5.91;100.00
13080;BME280;6606;49.154;9.280;2022-11-06T08:38:01;99766.22;;;6.18;100.00
13080;BME280;6606;49.154;9.280;2022-11-06T08:40:28;99777.03;;;6.37;100.00
13080;BME280;6606;49.154;9.280;2022-11-06T08:42:58;99781.22;;;6.43;100.00
13080;BME280;6606;49.154;9.280;2022-11-06T08:45:25;99782.19;;;6.40;100.00
13080;BME280;6606;49.154;9.280;2022-11-06T08:47:52;99769.94;;;6.67;100.00
13080;BME280;6606;49.154;9.280;2022-11-06T08:50:19;99762.66;;;7.00;100.00
13080;BME280;6606;49.154;9.280;2022-11-06T08:52:45;99757.19;;;7.07;100.00
13080;BME280;6606;49.154;9.280;2022-11-06T08:55:12;99755.78;;;7.21;100.00
13080;BME280;6606;49.154;9.280;2022-11-06T08:57:39;99763.28;;;7.34;100.00
13080;BME280;6606;49.154;9.280;2022-11-06T09:00:08;99765.75;;;7.38;100.00
13080;BME280;6606;49.154;9.280;2022-11-06T09:02:36;99767.19;;;7.47;100.00
13080;BME280;6606;49.154;9.280;2022-11-06T09:05:03;99776.31;;;7.62;100.00
13080;BME280;6606;49.154;9.280;2022-11-06T09:07:30;99771.72;;;7.67;100.00
13080;BME280;6606;49.154;9.280;2022-11-06T09:09:56;99769.75;;;7.48;100.00
13080;BME280;6606;49.154;9.280;2022-11-06T09:12:23;99775.56;;;7.58;100.00
13080;BME280;6606;49.154;9.280;2022-11-06T09:14:50;99788.47;;;7.66;100.00
13080;BME280;6606;49.154;9.280;2022-11-06T09:17:18;99806.53;;;7.28;100.00
13080;BME280;6606;49.154;9.280;2022-11-06T09:19:48;99807.69;;;7.19;100.00
13080;BME280;6606;49.154;9.280;2022-11-06T09:22:14;99810.66;;;7.10;100.00
13080;BME280;6606;49.154;9.280;2022-11-06T09:24:41;99816.63;;;7.15;100.00
13080;BME280;6606;49.154;9.280;2022-11-06T09:27:08;99811.22;;;7.20;100.00
13080;BME280;6606;49.154;9.280;2022-11-06T09:29:35;99800.81;;;7.15;100.00
13080;BME280;6606;49.154;9.280;2022-11-06T09:32:05;99799.16;;;6.86;100.00
13080;BME280;6606;49.154;9.280;2022-11-06T09:34:33;99797.16;;;6.93;100.00
13080;BME280;6606;49.154;9.280;2022-11-06T09:37:00;99786.59;;;6.68;100.00
13080;BME280;6606;49.154;9.280;2022-11-06T09:39:27;99784.16;;;6.88;100.00
13080;BME280;6606;49.154;9.280;2022-11-06T09:41:57;99781.88;;;7.04;100.00
13080;BME280;6606;49.154;9.280;2022-11-06T09:44:35;99770.63;;;7.24;100.00
13080;BME280;6606;49.154;9.280;2022-11-06T09:47:10;99765.16;;;7.54;100.00
13080;BME280;6606;49.154;9.280;2022-11-06T09:49:44;99761.34;;;7.62;100.00
13080;BME280;6606;49.154;9.280;2022-11-06T09:52:19;99751.19;;;7.99;100.00
13080;BME280;6606;49.154;9.280;2022-11-06T09:54:52;99746.19;;;8.36;100.00
13080;BME280;6606;49.154;9.280;2022-11-06T09:57:22;99754.50;;;8.49;100.00
13080;BME280;6606;49.154;9.280;2022-11-06T09:59:53;99748.63;;;8.43;100.00
13080;BME280;6606;49.154;9.280;2022-11-06T10:02:27;99754.19;;;8.57;100.00
13080;BME280;6606;49.154;9.280;2022-11-06T10:05:03;99749.66;;;9.03;100.00
13080;BME280;6606;49.154;9.280;2022-11-06T10:07:33;99750.63;;;9.60;100.00
13080;BME280;6606;49.154;9.280;2022-11-06T10:10:03;99733.94;;;9.79;100.00
13080;BME280;6606;49.154;9.280;2022-11-06T10:12:41;99731.22;;;9.99;100.00
13080;BME280;6606;49.154;9.280;2022-11-06T10:15:19;99718.78;;;9.82;100.00
13080;BME280;6606;49.154;9.280;2022-11-06T10:17:54;99719.94;;;9.96;100.00
13080;BME280;6606;49.154;9.280;2022-11-06T10:20:28;99708.34;;;9.98;100.00
13080;BME280;6606;49.154;9.280;2022-11-06T10:23:02;99703.91;;;9.80;100.00
13080;BME280;6606;49.154;9.280;2022-11-06T10:25:44;99702.75;;;9.66;100.00
13080;BME280;6606;49.154;9.280;2022-11-06T10:28:24;99700.09;;;9.66;100.00
13080;BME280;6606;49.154;9.280;2022-11-06T10:31:01;99685.53;;;10.13;100.00
13080;BME280;6606;49.154;9.280;2022-11-06T10:33:39;99677.56;;;10.51;100.00
13080;BME280;6606;49.154;9.280;2022-11-06T10:36:13;99667.50;;;10.57;100.00
13080;BME280;6606;49.154;9.280;2022-11-06T10:38:44;99659.91;;;11.02;100.00
13080;BME280;6606;49.154;9.280;2022-11-06T10:41:20;99650.56;;;11.28;100.00
13080;BME280;6606;49.154;9.280;2022-11-06T10:43:51;99642.72;;;11.58;100.00
13080;BME280;6606;49.154;9.280;2022-11-06T10:46:25;99639.66;;;11.82;100.00
13080;BME280;6606;49.154;9.280;2022-11-06T10:48:56;99632.50;;;12.00;100.00
13080;BME280;6606;49.154;9.280;2022-11-06T10:51:43;99615.88;;;12.12;100.00
13080;BME280;6606;49.154;9.280;2022-11-06T10:54:28;99611.94;;;11.87;100.00
13080;BME280;6606;49.154;9.280;2022-11-06T10:57:10;99613.63;;;12.20;100.00
13080;BME280;6606;49.154;9.280;2022-11-06T10:59:41;99598.28;;;12.25;100.00
13080;BME280;6606;49.154;9.280;2022-11-06T11:02:21;99584.34;;;11.90;100.00
13080;BME280;6606;49.154;9.280;2022-11-06T11:04:49;99586.13;;;11.26;100.00
13080;BME280;6606;49.154;9.280;2022-11-06T11:07:18;99582.47;;;11.44;100.00
13080;BME280;6606;49.154;9.280;2022-11-06T11:09:44;99567.38;;;11.61;100.00
13080;BME280;6606;49.154;9.280;2022-11-06T11:12:22;99559.94;;;11.68;100.00
13080;BME280;6606;49.154;9.280;2022-11-06T11:15:11;99557.38;;;11.66;100.00
13080;BME280;6606;49.154;9.280;2022-11-06T11:17:39;99558.31;;;11.97;100.00
13080;BME280;6606;49.154;9.280;2022-11-06T11:20:27;99540.03;;;12.37;100.00
13080;BME280;6606;49.154;9.280;2022-11-06T11:23:05;99530.81;;;12.28;100.00
13080;BME280;6606;49.154;9.280;2022-11-06T11:25:32;99526.69;;;12.22;100.00
13080;BME280;6606;49.154;9.280;2022-11-06T11:27:59;99521.06;;;12.57;100.00
13080;BME280;6606;49.154;9.280;2022-11-06T11:30:26;99516.34;;;12.62;100.00
13080;BME280;6606;49.154;9.280;2022-11-06T11:32:54;99518.78;;;12.65;100.00
13080;BME280;6606;49.154;9.280;2022-11-06T11:35:25;99511.94;;;12.90;100.00
13080;BME280;6606;49.154;9.280;2022-11-06T11:38:06;99515.75;;;13.00;100.00
13080;BME280;6606;49.154;9.280;2022-11-06T11:40:35;99510.03;;;13.06;100.00
13080;BME280;6606;49.154;9.280;2022-11-06T11:43:19;99498.56;;;12.91;100.00
13080;BME280;6606;49.154;9.280;2022-11-06T11:46:01;99492.94;;;13.10;100.00
13080;BME280;6606;49.154;9.280;2022-11-06T11:48:40;99483.69;;;13.16;100.00
13080;BME280;6606;49.154;9.280;2022-11-06T11:51:14;99474.44;;;12.94;100.00
13080;BME280;6606;49.154;9.280;2022-11-06T11:53:43;99481.03;;;13.02;100.00
13080;BME280;6606;49.154;9.280;2022-11-06T11:56:13;99473.16;;;13.29;100.00
13080;BME280;6606;49.154;9.280;2022-11-06T11:58:48;99473.94;;;13.44;100.00
13080;BME280;6606;49.154;9.280;2022-11-06T12:01:16;99477.44;;;13.58;100.00
13080;BME280;6606;49.154;9.280;2022-11-06T12:03:46;99468.31;;;13.75;100.00
13080;BME280;6606;49.154;9.280;2022-11-06T12:06:16;99450.59;;;13.61;100.00
13080;BME280;6606;49.154;9.280;2022-11-06T12:08:47;99449.06;;;13.57;100.00
13080;BME280;6606;49.154;9.280;2022-11-06T12:11:19;99448.81;;;13.20;100.00
13080;BME280;6606;49.154;9.280;2022-11-06T12:16:49;99434.41;;;13.64;100.00
13080;BME280;6606;49.154;9.280;2022-11-06T12:19:18;99434.22;;;13.40;100.00
13080;BME280;6606;49.154;9.280;2022-11-06T12:21:50;99430.16;;;13.75;100.00
13080;BME280;6606;49.154;9.280;2022-11-06T12:24:22;99435.28;;;13.78;100.00
13080;BME280;6606;49.154;9.280;2022-11-06T12:26:54;99422.69;;;13.67;100.00
13080;BME280;6606;49.154;9.280;2022-11-06T12:29:27;99431.88;;;13.22;100.00
13080;BME280;6606;49.154;9.280;2022-11-06T12:32:01;99413.63;;;13.30;100.00
13080;BME280;6606;49.154;9.280;2022-11-06T12:34:33;99410.72;;;13.06;100.00
13080;BME280;6606;49.154;9.280;2022-11-06T12:37:12;99387.56;;;13.35;100.00
13080;BME280;6606;49.154;9.280;2022-11-06T12:39:48;99391.75;;;13.52;100.00
13080;BME280;6606;49.154;9.280;2022-11-06T12:42:19;99387.44;;;13.89;100.00
13080;BME280;6606;49.154;9.280;2022-11-06T12:44:48;99379.50;;;13.36;100.00
13080;BME280;6606;49.154;9.280;2022-11-06T12:47:22;99375.75;;;13.79;100.00
13080;BME280;6606;49.154;9.280;2022-11-06T12:50:18;99374.53;;;13.70;100.00
13080;BME280;6606;49.154;9.280;2022-11-06T12:53:01;99370.91;;;13.58;100.00
13080;BME280;6606;49.154;9.280;2022-11-06T12:55:37;99366.47;;;13.32;100.00
13080;BME280;6606;49.154;9.280;2022-11-06T12:58:21;99362.19;;;13.02;100.00
13080;BME280;6606;49.154;9.280;2022-11-06T13:00:59;99356.13;;;13.00;100.00
13080;BME280;6606;49.154;9.280;2022-11-06T13:03:46;99363.91;;;13.03;100.00
13080;BME280;6606;49.154;9.280;2022-11-06T13:06:19;99359.63;;;13.01;100.00
13080;BME280;6606;49.154;9.280;2022-11-06T13:08:52;99356.63;;;12.92;100.00
13080;BME280;6606;49.154;9.280;2022-11-06T13:11:29;99348.69;;;12.78;100.00
13080;BME280;6606;49.154;9.280;2022-11-06T13:14:07;99344.31;;;13.04;100.00
13080;BME280;6606;49.154;9.280;2022-11-06T13:16:41;99338.81;;;13.20;100.00
13080;BME280;6606;49.154;9.280;2022-11-06T13:19:16;99338.34;;;13.28;100.00
13080;BME280;6606;49.154;9.280;2022-11-06T13:22:10;99332.94;;;13.02;100.00
13080;BME280;6606;49.154;9.280;2022-11-06T13:24:43;99339.31;;;13.27;100.00
13080;BME280;6606;49.154;9.280;2022-11-06T13:27:21;99339.59;;;13.22;100.00
13080;BME280;6606;49.154;9.280;2022-11-06T13:29:50;99335.84;;;13.39;100.00